Time;durP1;ratioP1;P1;durP2;ratioP2;P2;SDS_P1;SDS_P2;PMS_P1;PMS_P2;Temp;Humidity;BMP_temperature;BMP_pressure;BME280_temperature;BME280_humidity;BME280_pressure;Samples;Min_cycle;Max_cycle;Signal;HPM_P1;HPM_P2
2023/07/16 00:05:31;;;;;;;3.83;1.30;;;20.20;99.90;;;;;;12513776;28;20056;-34
2023/07/16 00:11:32;;;;;;;4.47;1.60;;;20.20;99.90;;;;;;12533288;28;20420;-35
2023/07/16 00:17:34;;;;;;;3.78;1.30;;;20.10;99.90;;;;;;12523413;28;20053;-35
2023/07/16 00:23:37;;;;;;;3.70;1.40;;;20.00;99.90;;;;;;12530147;28;20610;-35
2023/07/16 00:29:38;;;;;;;3.47;1.63;;;20.10;99.90;;;;;;12525256;28;20053;-35
2023/07/16 00:35:50;;;;;;;3.90;1.40;;;20.10;99.90;;;;;;12517902;28;20528;-35
2023/07/16 00:41:52;;;;;;;4.85;1.58;;;20.00;99.90;;;;;;12537553;28;20051;-35
2023/07/16 00:47:53;;;;;;;4.70;1.40;;;19.70;99.90;;;;;;12520641;28;20053;-35
2023/07/16 00:53:56;;;;;;;5.15;1.45;;;19.80;99.90;;;;;;12525787;28;20076;-35
2023/07/16 00:59:58;;;;;;;6.10;1.90;;;19.60;99.90;;;;;;12514358;28;20360;-35
2023/07/16 01:06:22;;;;;;;3.40;1.50;;;19.70;99.90;;;;;;12518441;28;20079;-35
2023/07/16 01:12:25;;;;;;;3.42;1.30;;;19.70;99.90;;;;;;12526038;28;20441;-35
2023/07/16 01:18:27;;;;;;;4.38;1.50;;;19.60;99.90;;;;;;12523976;28;20048;-35
2023/07/16 01:24:50;;;;;;;4.80;1.70;;;19.60;99.90;;;;;;12521459;28;20049;-36
2023/07/16 01:30:58;;;;;;;3.00;1.40;;;19.40;99.90;;;;;;12499384;28;20041;-35
2023/07/16 01:37:01;;;;;;;4.63;1.92;;;19.30;99.90;;;;;;12531568;28;20045;-35
2023/07/16 01:43:03;;;;;;;3.63;1.50;;;19.30;99.90;;;;;;12524562;28;20051;-35
2023/07/16 01:49:05;;;;;;;3.92;1.65;;;19.30;99.90;;;;;;12518751;28;20049;-35
2023/07/16 01:55:07;;;;;;;3.25;1.75;;;19.30;99.90;;;;;;12500140;28;20037;-35
2023/07/16 02:01:09;;;;;;;3.10;1.52;;;19.40;99.90;;;;;;12494407;28;20041;-35
2023/07/16 02:07:11;;;;;;;4.55;1.80;;;19.30;99.90;;;;;;12497501;28;20053;-35
2023/07/16 02:13:12;;;;;;;5.53;1.90;;;19.30;99.90;;;;;;12522185;28;20045;-34
2023/07/16 02:19:14;;;;;;;4.20;1.70;;;19.10;99.90;;;;;;12523168;28;20045;-35
2023/07/16 02:25:17;;;;;;;5.43;2.17;;;19.10;99.90;;;;;;12498216;28;20044;-35
2023/07/16 02:31:18;;;;;;;3.28;1.60;;;19.10;99.90;;;;;;12525149;28;20032;-35
2023/07/16 02:37:20;;;;;;;5.03;1.73;;;19.00;99.90;;;;;;12533157;28;20057;-34
2023/07/16 02:43:22;;;;;;;4.93;1.90;;;19.00;99.90;;;;;;12524923;28;20041;-35
2023/07/16 02:49:24;;;;;;;5.18;2.00;;;18.90;99.90;;;;;;12501059;28;20406;-35
2023/07/16 02:55:26;;;;;;;2.72;1.60;;;18.90;99.90;;;;;;12506942;28;20052;-36
2023/07/16 03:01:28;;;;;;;4.38;1.73;;;18.90;99.90;;;;;;12505952;28;20421;-35
2023/07/16 03:07:30;;;;;;;4.00;1.70;;;18.80;99.90;;;;;;12528943;28;20821;-35
2023/07/16 03:13:32;;;;;;;6.30;2.13;;;18.70;99.90;;;;;;12494652;28;20419;-35
2023/07/16 03:19:33;;;;;;;5.55;2.28;;;18.60;99.90;;;;;;12531562;28;20064;-35
2023/07/16 03:25:35;;;;;;;5.70;2.10;;;18.50;99.90;;;;;;12506022;28;20056;-35
2023/07/16 03:31:37;;;;;;;4.18;2.28;;;18.40;99.90;;;;;;12505974;28;20060;-35
2023/07/16 03:37:39;;;;;;;4.57;2.08;;;18.40;99.90;;;;;;12509235;28;20118;-35
2023/07/16 03:43:41;;;;;;;4.78;2.00;;;18.30;99.90;;;;;;12538781;28;20111;-36
2023/07/16 03:49:43;;;;;;;8.48;2.00;;;18.30;99.90;;;;;;12521278;28;20084;-35
2023/07/16 03:55:44;;;;;;;6.10;2.30;;;18.20;99.90;;;;;;12501227;28;20424;-34
2023/07/16 04:01:47;;;;;;;4.38;2.40;;;18.20;99.90;;;;;;12518957;28;20045;-35
2023/07/16 04:07:49;;;;;;;4.55;2.15;;;18.10;99.90;;;;;;12522087;28;20098;-35
2023/07/16 04:13:51;;;;;;;3.58;2.00;;;18.60;99.90;;;;;;12516830;28;20049;-35
2023/07/16 04:19:53;;;;;;;4.78;1.50;;;18.90;99.90;;;;;;12521269;28;20092;-36
2023/07/16 04:25:56;;;;;;;4.00;1.85;;;19.60;99.90;;;;;;12499431;28;20068;-36
2023/07/16 04:31:58;;;;;;;5.40;1.88;;;19.90;99.90;;;;;;12512103;28;20499;-35
2023/07/16 04:38:00;;;;;;;3.87;1.70;;;19.70;99.90;;;;;;12521367;28;20539;-35
2023/07/16 04:44:02;;;;;;;4.38;1.92;;;20.10;99.90;;;;;;12531107;28;21048;-36
2023/07/16 04:50:05;;;;;;;3.50;1.63;;;20.40;99.90;;;;;;12512563;28;20045;-35
2023/07/16 04:56:14;;;;;;;3.95;1.60;;;20.60;99.90;;;;;;12511617;28;20049;-36
2023/07/16 05:02:17;;;;;;;5.05;1.40;;;20.60;99.90;;;;;;12502604;28;20084;-36
2023/07/16 05:08:19;;;;;;;7.35;1.50;;;20.60;99.90;;;;;;12525913;28;20425;-35
2023/07/16 05:14:21;;;;;;;9.57;1.70;;;19.80;99.90;;;;;;12522302;28;20135;-36
2023/07/16 05:20:22;;;;;;;3.85;1.30;;;19.60;99.90;;;;;;12530480;28;21452;-36
2023/07/16 05:26:24;;;;;;;6.35;1.60;;;19.60;99.90;;;;;;12498642;28;20057;-35
2023/07/16 05:32:26;;;;;;;8.65;1.83;;;19.30;99.90;;;;;;12525931;28;20135;-35
2023/07/16 05:38:28;;;;;;;5.40;1.65;;;19.30;99.90;;;;;;12516255;28;20041;-36
2023/07/16 05:44:31;;;;;;;5.40;1.58;;;19.30;99.90;;;;;;12535890;28;20044;-36
2023/07/16 05:50:33;;;;;;;4.95;1.60;;;19.10;99.90;;;;;;12501387;28;20508;-36
2023/07/16 05:56:34;;;;;;;4.57;1.55;;;19.10;99.90;;;;;;12511257;28;20064;-35
2023/07/16 06:02:36;;;;;;;6.57;1.52;;;19.20;99.90;;;;;;12507349;28;20541;-36
2023/07/16 06:08:38;;;;;;;4.40;1.50;;;19.20;99.90;;;;;;12519487;28;20060;-36
2023/07/16 06:14:40;;;;;;;5.93;1.50;;;19.20;99.90;;;;;;12503237;28;20052;-36
2023/07/16 06:20:46;;;;;;;6.03;2.20;;;19.20;99.90;;;;;;12523182;28;20068;-36
2023/07/16 06:26:47;;;;;;;6.75;2.22;;;19.20;99.90;;;;;;12509002;28;20069;-36
2023/07/16 06:32:49;;;;;;;8.73;2.58;;;19.30;99.90;;;;;;12513284;28;20105;-36
2023/07/16 06:38:51;;;;;;;5.70;2.30;;;19.30;99.90;;;;;;12525506;28;20438;-36
2023/07/16 06:44:53;;;;;;;9.30;2.67;;;19.60;99.90;;;;;;12525583;28;20048;-36
2023/07/16 06:50:55;;;;;;;6.22;2.53;;;19.60;99.90;;;;;;12494752;28;20477;-36
2023/07/16 06:56:57;;;;;;;6.65;2.38;;;19.90;99.90;;;;;;12514994;28;20132;-36
2023/07/16 07:02:59;;;;;;;7.50;2.80;;;20.00;99.90;;;;;;12519851;28;20053;-36
2023/07/16 07:09:01;;;;;;;6.65;3.03;;;20.10;99.90;;;;;;12497847;28;20054;-36
2023/07/16 07:15:12;;;;;;;9.07;2.90;;;20.20;99.90;;;;;;12508770;28;20430;-36
2023/07/16 07:21:14;;;;;;;8.48;2.97;;;20.20;99.90;;;;;;12501920;28;20516;-36
2023/07/16 07:27:16;;;;;;;6.63;2.78;;;20.30;99.90;;;;;;12491125;28;20508;-35
2023/07/16 07:33:21;;;;;;;8.23;2.78;;;20.10;99.90;;;;;;12505888;28;20057;-36
2023/07/16 07:39:23;;;;;;;10.63;3.50;;;20.50;99.90;;;;;;12512254;28;20041;-36
2023/07/16 07:45:26;;;;;;;8.63;3.10;;;20.40;99.90;;;;;;12511658;28;20088;-35
2023/07/16 07:51:27;;;;;;;8.60;3.20;;;20.10;99.90;;;;;;12519402;28;20053;-35
2023/07/16 07:57:29;;;;;;;9.88;3.55;;;20.00;99.90;;;;;;12493165;28;20053;-36
2023/07/16 08:03:32;;;;;;;7.20;3.05;;;20.10;99.90;;;;;;12495926;28;20061;-36
2023/07/16 08:09:34;;;;;;;9.57;3.55;;;20.40;99.90;;;;;;12495999;28;20482;-36
2023/07/16 08:15:36;;;;;;;8.38;2.90;;;20.70;99.90;;;;;;12498339;28;20099;-36
2023/07/16 08:21:37;;;;;;;6.13;2.83;;;20.90;99.90;;;;;;12539140;28;20095;-35
2023/07/16 08:27:39;;;;;;;6.57;2.50;;;20.80;99.90;;;;;;12509806;28;20123;-36
2023/07/16 08:33:41;;;;;;;7.38;2.95;;;20.40;99.90;;;;;;12502985;28;20056;-35
2023/07/16 08:39:43;;;;;;;10.60;3.20;;;20.30;99.90;;;;;;12525446;28;20049;-36
2023/07/16 08:45:46;;;;;;;9.18;3.17;;;20.70;99.90;;;;;;12525871;28;20037;-36
2023/07/16 08:51:49;;;;;;;6.30;2.87;;;20.90;99.90;;;;;;12495006;28;20045;-35
2023/07/16 08:57:51;;;;;;;7.20;3.23;;;21.20;99.90;;;;;;12515869;28;20052;-36
2023/07/16 09:03:53;;;;;;;10.32;3.42;;;21.60;99.90;;;;;;12491817;28;20121;-36
2023/07/16 09:09:59;;;;;;;7.18;3.00;;;21.70;99.90;;;;;;12531227;28;20048;-36
2023/07/16 09:16:02;;;;;;;8.07;3.00;;;21.80;99.90;;;;;;12512547;28;20086;-36
2023/07/16 09:22:04;;;;;;;6.93;2.78;;;21.90;99.90;;;;;;12477486;28;20422;-35
2023/07/16 09:28:08;;;;;;;4.32;2.60;;;22.20;99.90;;;;;;12484600;28;20049;-35
2023/07/16 09:34:09;;;;;;;8.18;2.83;;;22.20;99.90;;;;;;12486984;28;20072;-36
2023/07/16 09:40:12;;;;;;;6.47;2.78;;;22.10;99.90;;;;;;12499670;28;20103;-36
2023/07/16 09:46:14;;;;;;;8.68;2.97;;;22.30;99.90;;;;;;12504639;28;20046;-36
2023/07/16 09:52:17;;;;;;;6.70;2.80;;;22.50;99.90;;;;;;12497896;28;20056;-36
2023/07/16 09:58:22;;;;;;;9.75;2.78;;;22.20;99.90;;;;;;12514623;28;20042;-35
2023/07/16 10:04:25;;;;;;;6.38;2.75;;;22.50;99.90;;;;;;12504003;28;20044;-36
2023/07/16 10:10:48;;;;;;;5.05;2.60;;;22.90;99.90;;;;;;12505621;28;20053;-36
2023/07/16 10:16:50;;;;;;;7.20;2.80;;;22.90;99.90;;;;;;12511747;28;20144;-36
2023/07/16 10:22:52;;;;;;;9.93;2.75;;;23.10;99.90;;;;;;12527149;28;20425;-36
2023/07/16 10:28:55;;;;;;;7.40;2.60;;;23.10;99.90;;;;;;12494299;28;20053;-36
2023/07/16 10:34:57;;;;;;;4.10;2.33;;;22.50;99.90;;;;;;12501379;28;20076;-36
2023/07/16 10:40:59;;;;;;;6.83;2.77;;;22.40;99.90;;;;;;12508598;28;20049;-35
2023/07/16 10:47:01;;;;;;;7.47;2.70;;;22.20;99.90;;;;;;12507391;28;20636;-36
2023/07/16 10:53:03;;;;;;;7.50;2.40;;;23.10;99.90;;;;;;12499145;28;20834;-36
2023/07/16 10:59:07;;;;;;;4.57;2.20;;;22.80;99.90;;;;;;12516815;28;20045;-36
2023/07/16 11:05:13;;;;;;;7.45;2.80;;;22.80;99.90;;;;;;12513287;28;20459;-36
2023/07/16 11:11:15;;;;;;;8.55;2.72;;;22.60;99.90;;;;;;12498910;28;20048;-36
2023/07/16 11:17:17;;;;;;;6.50;3.05;;;22.30;99.90;;;;;;12507340;28;20408;-36
2023/07/16 11:23:20;;;;;;;6.80;3.00;;;22.90;99.90;;;;;;12502674;28;20049;-36
2023/07/16 11:29:22;;;;;;;6.43;2.50;;;23.90;99.90;;;;;;12517388;28;20057;-36
2023/07/16 11:35:26;;;;;;;5.53;2.87;;;23.90;99.90;;;;;;12498471;28;20044;-36
2023/07/16 11:41:27;;;;;;;6.18;2.80;;;23.80;99.90;;;;;;12491627;28;20394;-36
2023/07/16 11:47:30;;;;;;;4.55;2.30;;;23.70;99.90;;;;;;12515019;28;20854;-37
2023/07/16 11:53:32;;;;;;;6.40;2.67;;;24.20;99.90;;;;;;12518017;28;20072;-36
2023/07/16 11:59:34;;;;;;;4.97;2.63;;;23.50;99.90;;;;;;12488277;28;20428;-36
2023/07/16 12:05:37;;;;;;;8.35;2.53;;;23.50;99.90;;;;;;12491919;28;20654;-36
2023/07/16 12:11:54;;;;;;;5.68;2.50;;;23.70;99.90;;;;;;12505854;28;20437;-37
2023/07/16 12:17:57;;;;;;;4.93;2.28;;;23.70;99.90;;;;;;12520485;28;20053;-36
2023/07/16 12:24:00;;;;;;;4.90;2.88;;;23.20;99.90;;;;;;12528549;28;20044;-35
2023/07/16 12:30:02;;;;;;;5.78;2.60;;;23.80;99.90;;;;;;12513570;28;20849;-36
2023/07/16 12:36:04;;;;;;;5.73;2.60;;;24.30;99.90;;;;;;12513592;28;20056;-36
2023/07/16 12:42:06;;;;;;;4.60;2.45;;;24.00;99.90;;;;;;12524969;28;20045;-36
2023/07/16 12:48:08;;;;;;;7.20;2.45;;;23.90;99.90;;;;;;12512891;28;20083;-36
2023/07/16 12:54:10;;;;;;;7.93;2.13;;;24.00;99.90;;;;;;12502103;28;20042;-36
2023/07/16 13:00:12;;;;;;;7.43;2.63;;;24.10;99.90;;;;;;12494394;28;20053;-36
2023/07/16 13:06:14;;;;;;;3.78;1.85;;;24.20;99.90;;;;;;12508012;28;20124;-36
2023/07/16 13:12:17;;;;;;;6.17;2.27;;;24.10;99.90;;;;;;12524510;28;20083;-36
2023/07/16 13:18:19;;;;;;;5.63;2.55;;;24.40;99.90;;;;;;12536742;28;20588;-36
2023/07/16 13:24:21;;;;;;;6.60;2.60;;;24.70;99.90;;;;;;12516330;28;20094;-36
2023/07/16 13:30:23;;;;;;;5.82;2.28;;;23.90;99.90;;;;;;12521791;28;20048;-36
2023/07/16 13:36:26;;;;;;;3.97;2.42;;;23.60;99.90;;;;;;12514874;28;20069;-36
2023/07/16 13:42:27;;;;;;;4.43;2.40;;;23.40;99.90;;;;;;12541970;28;20051;-36
2023/07/16 13:48:30;;;;;;;8.82;2.53;;;23.60;99.90;;;;;;12532750;28;20049;-36
2023/07/16 13:54:44;;;;;;;6.05;2.17;;;23.40;99.90;;;;;;12504133;28;20529;-37
2023/07/16 14:00:46;;;;;;;6.35;2.30;;;24.10;99.90;;;;;;12496131;28;20053;-36
2023/07/16 14:06:48;;;;;;;4.45;2.00;;;24.10;99.90;;;;;;12516583;28;20045;-36
2023/07/16 14:12:50;;;;;;;5.90;2.10;;;24.30;99.90;;;;;;12517700;28;20064;-37
2023/07/16 14:18:53;;;;;;;5.47;2.10;;;23.90;99.90;;;;;;12496968;28;20106;-36
2023/07/16 14:24:56;;;;;;;12.23;6.63;;;23.80;99.90;;;;;;12511638;28;20452;-36
2023/07/16 14:30:57;;;;;;;5.68;2.35;;;24.20;99.90;;;;;;12521648;28;20052;-37
2023/07/16 14:36:59;;;;;;;5.38;2.42;;;24.50;99.90;;;;;;12499780;28;20064;-36
2023/07/16 14:43:04;;;;;;;100.77;71.40;;;24.80;99.90;;;;;;12511571;28;20513;-37
2023/07/16 14:49:06;;;;;;;72.97;37.20;;;24.20;99.90;;;;;;12505369;28;20306;-36
2023/07/16 14:55:08;;;;;;;12.85;4.53;;;23.80;99.90;;;;;;12516815;28;20094;-36
2023/07/16 15:01:11;;;;;;;5.22;2.55;;;24.00;99.90;;;;;;12506175;28;20052;-36
2023/07/16 15:07:13;;;;;;;96.97;48.17;;;24.10;99.90;;;;;;12514567;28;20049;-36
2023/07/16 15:13:17;;;;;;;6.88;2.80;;;24.10;99.90;;;;;;12518162;28;20510;-36
2023/07/16 15:19:19;;;;;;;6.57;2.17;;;24.10;99.90;;;;;;12515124;28;20049;-35
2023/07/16 15:25:22;;;;;;;5.38;2.20;;;24.10;99.90;;;;;;12505174;28;20048;-35
2023/07/16 15:31:27;;;;;;;5.50;2.42;;;23.90;99.90;;;;;;12511980;28;20099;-35
2023/07/16 15:37:30;;;;;;;5.93;2.67;;;23.80;99.90;;;;;;12511286;28;20112;-36
2023/07/16 15:43:32;;;;;;;7.38;2.20;;;23.90;99.90;;;;;;12525937;28;20045;-36
2023/07/16 15:49:34;;;;;;;7.20;2.58;;;23.90;99.90;;;;;;12514332;28;20045;-36
2023/07/16 15:55:36;;;;;;;5.60;2.40;;;24.00;99.90;;;;;;12519135;28;20056;-36
2023/07/16 16:01:38;;;;;;;6.53;2.10;;;24.10;99.90;;;;;;12521224;28;20053;-36
2023/07/16 16:08:04;;;;;;;7.63;2.63;;;24.00;99.90;;;;;;12515848;28;20090;-36
2023/07/16 16:14:08;;;;;;;5.40;2.35;;;24.10;99.90;;;;;;12508404;28;20133;-35
2023/07/16 16:20:12;;;;;;;13.18;5.53;;;24.00;99.90;;;;;;12520066;28;20072;-35
2023/07/16 16:26:14;;;;;;;4.80;2.38;;;24.00;99.90;;;;;;12519672;28;20064;-35
2023/07/16 16:32:16;;;;;;;5.85;2.58;;;23.90;99.90;;;;;;12516189;28;20220;-38
2023/07/16 16:38:18;;;;;;;4.97;2.58;;;24.10;99.90;;;;;;12518232;28;20053;-35
2023/07/16 16:44:20;;;;;;;5.50;2.50;;;23.40;99.90;;;;;;12512315;28;20048;-35
2023/07/16 16:50:22;;;;;;;7.40;2.50;;;23.50;99.90;;;;;;12512843;28;20301;-35
2023/07/16 16:56:27;;;;;;;9.05;2.72;;;23.40;99.90;;;;;;12494953;28;20136;-35
2023/07/16 17:02:29;;;;;;;6.47;2.55;;;23.20;99.90;;;;;;12513105;28;20041;-35
2023/07/16 17:08:31;;;;;;;4.63;2.25;;;23.40;99.90;;;;;;12503614;28;20074;-35
2023/07/16 17:14:33;;;;;;;5.55;2.50;;;23.90;99.90;;;;;;12485077;28;20045;-36
2023/07/16 17:20:35;;;;;;;6.03;2.53;;;24.00;99.90;;;;;;12502994;28;20228;-36
2023/07/16 17:26:41;;;;;;;6.57;2.65;;;23.90;99.90;;;;;;12525247;28;20511;-36
2023/07/16 17:32:43;;;;;;;6.15;2.53;;;24.00;99.90;;;;;;12501603;28;20429;-36
2023/07/16 17:38:45;;;;;;;6.90;2.83;;;23.90;99.90;;;;;;12464427;28;20482;-36
2023/07/16 17:44:48;;;;;;;3.72;2.35;;;24.10;99.90;;;;;;12530223;28;20041;-36
2023/07/16 17:50:51;;;;;;;8.35;2.30;;;24.00;99.90;;;;;;12512397;28;20159;-35
2023/07/16 17:56:53;;;;;;;7.50;2.60;;;23.10;99.90;;;;;;12446595;28;20049;-35
2023/07/16 18:02:56;;;;;;;5.53;2.50;;;22.90;99.90;;;;;;12521238;28;20037;-36
2023/07/16 18:08:58;;;;;;;8.35;2.20;;;22.90;99.90;;;;;;12514157;28;20055;-36
2023/07/16 18:15:00;;;;;;;5.75;2.35;;;22.70;99.90;;;;;;12511215;28;20045;-36
2023/07/16 18:21:04;;;;;;;5.88;2.30;;;22.50;99.90;;;;;;12518821;28;20049;-35
2023/07/16 18:27:16;;;;;;;4.95;2.50;;;22.40;99.90;;;;;;12503266;28;20048;-35
2023/07/16 18:33:19;;;;;;;4.53;2.22;;;22.40;99.90;;;;;;12494653;28;20059;-35
2023/07/16 18:39:21;;;;;;;5.18;2.05;;;22.30;99.90;;;;;;12519135;28;20099;-34
2023/07/16 18:45:23;;;;;;;5.72;2.10;;;22.40;99.90;;;;;;12505648;28;20199;-35
2023/07/16 18:51:25;;;;;;;10.23;3.05;;;22.50;99.90;;;;;;12522556;28;20045;-35
2023/07/16 18:57:28;;;;;;;5.68;2.13;;;22.30;99.90;;;;;;12500284;28;20088;-36
2023/07/16 19:03:30;;;;;;;4.70;2.50;;;22.20;99.90;;;;;;12497919;28;20473;-34
2023/07/16 19:09:32;;;;;;;7.63;2.50;;;22.10;99.90;;;;;;12489820;28;20049;-36
2023/07/16 19:15:34;;;;;;;7.15;2.40;;;22.00;99.90;;;;;;12503705;28;20049;-35
2023/07/16 19:21:36;;;;;;;5.75;2.40;;;21.70;99.90;;;;;;12512481;28;20073;-36
2023/07/16 19:27:37;;;;;;;4.00;2.10;;;21.60;99.90;;;;;;12505270;28;20049;-36
2023/07/16 19:33:39;;;;;;;7.50;2.70;;;21.60;99.90;;;;;;12493986;28;20425;-35
2023/07/16 19:39:41;;;;;;;5.75;2.38;;;21.40;99.90;;;;;;12522339;28;20062;-35
2023/07/16 19:45:43;;;;;;;10.07;2.72;;;21.40;99.90;;;;;;12499271;28;20068;-35
2023/07/16 19:51:45;;;;;;;6.65;2.53;;;21.30;99.90;;;;;;12482885;28;20049;-35
2023/07/16 19:57:48;;;;;;;8.30;2.83;;;21.00;99.90;;;;;;12488412;28;20071;-35
2023/07/16 20:03:50;;;;;;;6.40;2.60;;;20.70;99.90;;;;;;12522748;28;20037;-35
2023/07/16 20:09:52;;;;;;;4.40;2.20;;;20.60;99.90;;;;;;12511009;28;20056;-35
2023/07/16 20:15:56;;;;;;;5.38;2.40;;;20.60;99.90;;;;;;12507616;28;20094;-35
2023/07/16 20:21:57;;;;;;;5.10;1.98;;;20.50;99.90;;;;;;12515975;28;20276;-35
2023/07/16 20:27:59;;;;;;;5.60;2.38;;;20.50;99.90;;;;;;12520550;28;20438;-35
2023/07/16 20:34:01;;;;;;;7.97;2.20;;;20.60;99.90;;;;;;12514721;28;20053;-36
2023/07/16 20:40:10;;;;;;;11.57;2.30;;;20.70;99.90;;;;;;12515874;28;20126;-35
2023/07/16 20:46:12;;;;;;;5.05;2.40;;;20.80;99.90;;;;;;12514125;28;20049;-35
2023/07/16 20:52:14;;;;;;;6.15;2.30;;;20.50;99.90;;;;;;12526024;28;20080;-35
2023/07/16 20:58:16;;;;;;;6.38;2.30;;;20.40;99.90;;;;;;12508853;28;20049;-35
2023/07/16 21:04:18;;;;;;;5.30;2.47;;;20.40;99.90;;;;;;12502320;28;20041;-35
2023/07/16 21:10:23;;;;;;;6.35;2.30;;;20.30;99.90;;;;;;12517135;28;20063;-35
2023/07/16 21:16:25;;;;;;;3.72;2.13;;;20.40;99.90;;;;;;12511033;28;20135;-35
2023/07/16 21:22:31;;;;;;;7.07;2.50;;;20.40;99.90;;;;;;12505493;28;20091;-35
2023/07/16 21:28:32;;;;;;;6.25;2.53;;;20.40;99.90;;;;;;12499883;28;20459;-35
2023/07/16 21:34:34;;;;;;;6.20;2.25;;;20.50;99.90;;;;;;12501683;28;20068;-35
2023/07/16 21:40:37;;;;;;;5.68;2.88;;;20.20;99.90;;;;;;12498671;28;21829;-35
2023/07/16 21:46:39;;;;;;;5.68;2.50;;;20.00;99.90;;;;;;12508720;28;20146;-35
2023/07/16 21:52:41;;;;;;;7.93;2.97;;;19.90;99.90;;;;;;12499846;28;20053;-35
2023/07/16 21:58:43;;;;;;;6.00;2.72;;;19.70;99.90;;;;;;12507490;28;20071;-35
2023/07/16 22:04:44;;;;;;;8.07;2.63;;;19.30;99.90;;;;;;12497945;28;20138;-35
2023/07/16 22:10:46;;;;;;;6.22;2.60;;;19.00;99.90;;;;;;12511104;28;20054;-35
2023/07/16 22:16:48;;;;;;;9.30;2.90;;;18.80;99.90;;;;;;12503330;28;20072;-35
2023/07/16 22:22:57;;;;;;;5.28;2.60;;;18.90;99.90;;;;;;12513190;28;20086;-35
2023/07/16 22:28:59;;;;;;;6.93;2.90;;;18.70;99.90;;;;;;12505846;28;20041;-34
2023/07/16 22:35:03;;;;;;;5.32;2.45;;;18.70;99.90;;;;;;12504318;28;20147;-36
2023/07/16 22:41:05;;;;;;;6.57;2.40;;;18.90;99.90;;;;;;12526774;28;20053;-35
2023/07/16 22:47:08;;;;;;;7.80;2.72;;;19.00;99.90;;;;;;12504191;28;20048;-35
2023/07/16 22:53:09;;;;;;;5.90;2.58;;;19.20;99.90;;;;;;12497973;28;20045;-36
2023/07/16 22:59:11;;;;;;;5.15;2.50;;;19.40;99.90;;;;;;12475199;28;20180;-35
2023/07/16 23:05:13;;;;;;;7.05;2.65;;;19.00;99.90;;;;;;12500387;28;20106;-35
2023/07/16 23:11:15;;;;;;;6.35;2.70;;;19.00;99.90;;;;;;12512139;28;20494;-35
2023/07/16 23:17:18;;;;;;;6.15;2.60;;;19.10;99.90;;;;;;12497855;28;20047;-35
2023/07/16 23:23:19;;;;;;;7.75;2.65;;;19.00;99.90;;;;;;12508418;28;20049;-35
2023/07/16 23:29:21;;;;;;;5.10;2.30;;;18.80;99.90;;;;;;12517188;28;20459;-35
2023/07/16 23:35:24;;;;;;;6.47;2.30;;;18.80;99.90;;;;;;12508005;28;20049;-35
2023/07/16 23:41:26;;;;;;;6.90;2.30;;;18.90;99.90;;;;;;12514141;28;20042;-35
2023/07/16 23:47:28;;;;;;;6.15;2.63;;;19.00;99.90;;;;;;12503452;28;20057;-35
2023/07/16 23:53:30;;;;;;;7.22;3.03;;;19.10;99.90;;;;;;12517980;28;20091;-35
2023/07/16 23:59:32;;;;;;;7.22;2.70;;;19.20;99.90;;;;;;12513948;28;20444;-35
